Time;durP1;ratioP1;P1;durP2;ratioP2;P2;SDS_P1;SDS_P2;PMS_P1;PMS_P2;Temp;Humidity;BMP_temperature;BMP_pressure;BME280_temperature;BME280_humidity;BME280_pressure;Samples;Min_cycle;Max_cycle;Signal;HPM_P1;HPM_P2
2023/12/23 00:02:08;;;;;;;8.03;2.13;;;10.90;99.90;;;;;;5073273;28;20200;-88
2023/12/23 00:04:34;;;;;;;3.67;1.73;;;11.00;99.90;;;;;;5073279;28;20177;-90
2023/12/23 00:06:59;;;;;;;7.50;2.07;;;10.90;99.90;;;;;;5073365;28;20171;-86
2023/12/23 00:09:25;;;;;;;9.07;2.30;;;10.90;99.90;;;;;;5074927;28;20177;-89
2023/12/23 00:11:51;;;;;;;7.10;2.30;;;10.90;99.90;;;;;;5073528;28;20180;-91
2023/12/23 00:14:16;;;;;;;5.47;1.70;;;11.00;99.90;;;;;;5074289;28;20173;-92
2023/12/23 00:16:42;;;;;;;4.43;1.70;;;11.00;99.90;;;;;;5073568;28;20177;-87
2023/12/23 00:19:09;;;;;;;6.43;2.47;;;11.00;99.90;;;;;;5072830;28;20624;-91
2023/12/23 00:21:35;;;;;;;6.77;2.10;;;10.90;99.90;;;;;;5072312;28;20205;-88
2023/12/23 00:24:00;;;;;;;7.60;1.83;;;10.90;99.90;;;;;;5073021;28;20684;-88
2023/12/23 00:26:26;;;;;;;5.23;1.80;;;10.90;99.90;;;;;;5072848;28;20174;-91
2023/12/23 00:28:52;;;;;;;8.17;2.53;;;10.90;99.90;;;;;;5073262;28;20172;-91
2023/12/23 00:31:18;;;;;;;9.77;2.00;;;10.90;99.90;;;;;;5073584;28;20173;-88
2023/12/23 00:33:44;;;;;;;6.23;2.10;;;10.90;99.90;;;;;;5072523;28;20195;-90
2023/12/23 00:36:10;;;;;;;5.07;1.87;;;10.90;99.90;;;;;;5072553;28;20207;-87
2023/12/23 00:38:36;;;;;;;8.60;2.20;;;10.90;99.90;;;;;;5074106;28;20168;-87
2023/12/23 00:41:02;;;;;;;7.63;1.83;;;10.90;99.90;;;;;;5072526;28;20249;-88
2023/12/23 00:43:28;;;;;;;6.37;2.27;;;11.00;99.90;;;;;;5072969;28;20219;-89
2023/12/23 00:45:55;;;;;;;9.23;2.70;;;11.00;99.90;;;;;;5072782;28;20173;-89
2023/12/23 00:48:20;;;;;;;6.57;2.27;;;11.00;99.90;;;;;;5075947;28;20242;-90
2023/12/23 00:50:46;;;;;;;4.80;1.87;;;11.00;99.90;;;;;;5077423;28;20173;-88
2023/12/23 00:53:12;;;;;;;7.00;2.10;;;11.00;99.90;;;;;;5079708;28;20172;-86
2023/12/23 00:55:38;;;;;;;5.27;1.80;;;11.00;99.90;;;;;;5081511;28;20181;-84
2023/12/23 00:58:04;;;;;;;5.60;2.00;;;11.00;99.90;;;;;;5074318;28;20168;-88
2023/12/23 01:00:37;;;;;;;8.43;2.30;;;11.10;99.90;;;;;;5073116;28;20206;-91
2023/12/23 01:03:04;;;;;;;7.83;1.87;;;11.10;99.90;;;;;;5072434;28;20414;-89
2023/12/23 01:05:30;;;;;;;8.63;2.30;;;11.10;99.90;;;;;;5073642;28;20165;-89
2023/12/23 01:07:55;;;;;;;5.00;1.90;;;11.00;99.90;;;;;;5072918;28;20187;-89
2023/12/23 01:10:25;;;;;;;7.17;1.90;;;11.00;99.90;;;;;;5072452;28;20172;-89
2023/12/23 01:12:50;;;;;;;4.50;1.53;;;11.00;99.90;;;;;;5071721;28;20172;-90
2023/12/23 01:15:17;;;;;;;4.80;1.60;;;11.00;99.90;;;;;;5073782;28;20186;-89
2023/12/23 01:17:44;;;;;;;9.17;2.20;;;10.90;99.90;;;;;;5075247;28;20236;-86
2023/12/23 01:20:10;;;;;;;4.93;1.80;;;10.90;99.90;;;;;;5075198;28;20172;-82
2023/12/23 01:22:37;;;;;;;7.47;2.43;;;10.90;99.90;;;;;;5075446;28;20199;-83
2023/12/23 01:25:03;;;;;;;7.07;2.33;;;10.90;99.90;;;;;;5073333;28;20516;-86
2023/12/23 01:27:29;;;;;;;4.00;1.77;;;10.90;99.90;;;;;;5073734;28;20211;-90
2023/12/23 01:29:55;;;;;;;7.87;1.70;;;10.90;99.90;;;;;;5073497;28;20200;-88
2023/12/23 01:32:21;;;;;;;5.30;2.17;;;10.90;99.90;;;;;;5072579;28;20217;-90
2023/12/23 01:34:47;;;;;;;5.73;1.57;;;10.90;99.90;;;;;;5072995;28;20620;-90
2023/12/23 01:37:13;;;;;;;9.00;1.87;;;11.00;99.90;;;;;;5073159;28;20222;-87
2023/12/23 01:39:39;;;;;;;6.80;2.10;;;10.90;99.90;;;;;;5073593;28;20621;-90
2023/12/23 01:42:05;;;;;;;6.97;2.10;;;10.90;99.90;;;;;;5073422;28;20188;-89
2023/12/23 01:44:31;;;;;;;6.37;1.80;;;10.90;99.90;;;;;;5074673;28;20209;-82
2023/12/23 01:47:00;;;;;;;5.50;1.57;;;11.00;99.90;;;;;;5078641;28;20621;-85
2023/12/23 01:49:27;;;;;;;5.80;1.60;;;11.00;99.90;;;;;;5077430;28;20625;-81
2023/12/23 01:51:54;;;;;;;6.80;1.27;;;10.90;99.90;;;;;;5078563;28;20173;-90
2023/12/23 01:54:21;;;;;;;7.53;2.10;;;10.90;99.90;;;;;;5077921;28;20234;-88
2023/12/23 01:56:48;;;;;;;4.70;1.40;;;10.90;99.90;;;;;;5077233;28;20231;-84
2023/12/23 01:59:17;;;;;;;7.13;2.67;;;11.00;99.90;;;;;;5078397;28;20211;-90
2023/12/23 02:01:43;;;;;;;7.37;2.13;;;10.90;99.90;;;;;;5075678;28;20183;-88
2023/12/23 02:04:09;;;;;;;7.20;1.90;;;10.90;99.90;;;;;;5077763;28;20256;-88
2023/12/23 02:06:35;;;;;;;7.93;1.57;;;10.90;99.90;;;;;;5077744;28;20191;-90
2023/12/23 02:09:02;;;;;;;5.73;1.57;;;10.90;99.90;;;;;;5077989;28;20311;-88
2023/12/23 02:11:32;;;;;;;5.67;1.60;;;11.00;99.90;;;;;;5076336;28;20271;-88
2023/12/23 02:14:28;;;;;;;7.33;1.73;;;11.00;99.90;;;;;;5077293;28;20182;-86
2023/12/23 02:16:54;;;;;;;6.30;2.17;;;11.00;99.90;;;;;;5077109;28;20255;-89
2023/12/23 02:19:19;;;;;;;8.70;1.50;;;10.90;99.90;;;;;;5075752;28;20566;-88
2023/12/23 02:21:45;;;;;;;8.90;2.10;;;10.90;99.90;;;;;;5077043;28;20183;-89
2023/12/23 02:24:11;;;;;;;7.53;1.90;;;10.90;99.90;;;;;;5076728;28;20682;-91
2023/12/23 02:26:38;;;;;;;7.90;1.87;;;10.90;99.90;;;;;;5076832;28;20196;-79
2023/12/23 02:29:05;;;;;;;5.27;1.50;;;10.90;99.90;;;;;;5075338;28;20194;-83
2023/12/23 02:31:32;;;;;;;7.47;1.73;;;10.90;99.90;;;;;;5076015;28;20172;-89
2023/12/23 02:33:59;;;;;;;9.57;1.60;;;10.90;99.90;;;;;;5077206;28;20169;-88
2023/12/23 02:36:24;;;;;;;5.67;1.90;;;10.90;99.90;;;;;;5075734;28;20198;-86
2023/12/23 02:38:50;;;;;;;7.53;1.73;;;10.80;99.90;;;;;;5076120;28;20707;-88
2023/12/23 02:41:16;;;;;;;8.47;2.00;;;10.90;99.90;;;;;;5077317;28;20164;-89
2023/12/23 02:43:42;;;;;;;6.77;1.90;;;10.90;99.90;;;;;;5077244;28;20212;-86
2023/12/23 02:46:08;;;;;;;6.03;1.77;;;10.90;99.90;;;;;;5074574;28;20218;-89
2023/12/23 02:48:33;;;;;;;5.27;1.87;;;10.80;99.90;;;;;;5075137;28;20172;-88
2023/12/23 02:50:59;;;;;;;5.17;1.57;;;10.80;99.90;;;;;;5074825;28;20180;-90
2023/12/23 02:53:25;;;;;;;6.07;1.90;;;10.80;99.90;;;;;;5074692;28;20207;-89
2023/12/23 02:55:50;;;;;;;6.73;1.90;;;10.80;99.90;;;;;;5074505;28;20192;-87
2023/12/23 02:58:16;;;;;;;6.67;2.00;;;10.80;99.90;;;;;;5074504;28;20172;-82
2023/12/23 03:00:42;;;;;;;10.00;2.20;;;10.80;99.90;;;;;;5074009;28;20638;-90
2023/12/23 03:03:07;;;;;;;5.33;1.83;;;10.80;99.90;;;;;;5074050;28;20223;-87
2023/12/23 03:05:33;;;;;;;6.23;1.90;;;10.80;99.90;;;;;;5074184;28;20570;-88
2023/12/23 03:07:59;;;;;;;8.43;2.03;;;10.90;99.90;;;;;;5075458;28;20169;-91
2023/12/23 03:10:25;;;;;;;6.37;1.80;;;10.90;99.90;;;;;;5075502;28;20176;-91
2023/12/23 03:12:51;;;;;;;7.80;2.00;;;11.00;99.90;;;;;;5073483;28;20204;-88
2023/12/23 03:15:17;;;;;;;5.63;1.50;;;10.90;99.90;;;;;;5074109;28;20674;-90
2023/12/23 03:17:42;;;;;;;4.80;1.77;;;10.90;99.90;;;;;;5073982;28;20649;-87
2023/12/23 03:20:09;;;;;;;5.30;1.83;;;10.80;99.90;;;;;;5074285;28;20537;-85
2023/12/23 03:22:35;;;;;;;4.30;1.50;;;10.90;99.90;;;;;;5074126;28;20200;-89
2023/12/23 03:25:01;;;;;;;8.17;2.10;;;10.90;99.90;;;;;;5073909;28;20283;-89
2023/12/23 03:27:27;;;;;;;6.40;1.70;;;10.90;99.90;;;;;;5074086;28;20223;-88
2023/12/23 03:29:52;;;;;;;4.93;1.90;;;10.90;99.90;;;;;;5074951;28;20637;-81
2023/12/23 03:32:18;;;;;;;7.20;1.67;;;10.90;99.90;;;;;;5073906;28;20545;-90
2023/12/23 03:34:44;;;;;;;10.17;2.50;;;10.90;99.90;;;;;;5075557;28;20235;-90
2023/12/23 03:37:10;;;;;;;5.80;1.70;;;11.00;99.90;;;;;;5082827;28;20229;-81
2023/12/23 03:39:35;;;;;;;10.33;1.87;;;10.90;99.90;;;;;;5084574;28;20199;-89
2023/12/23 03:42:02;;;;;;;5.07;1.60;;;10.90;99.90;;;;;;5073965;28;20173;-89
2023/12/23 03:44:28;;;;;;;5.77;1.70;;;10.80;99.90;;;;;;5072783;28;20208;-88
2023/12/23 03:46:56;;;;;;;9.47;2.00;;;10.80;99.90;;;;;;5074174;28;20566;-90
2023/12/23 03:49:21;;;;;;;6.70;2.03;;;10.90;99.90;;;;;;5073306;28;20276;-87
2023/12/23 03:51:47;;;;;;;5.40;1.97;;;10.80;99.90;;;;;;5073752;28;20254;-89
2023/12/23 03:54:13;;;;;;;8.40;2.00;;;10.80;99.90;;;;;;5073827;28;20204;-90
2023/12/23 03:56:38;;;;;;;6.63;2.40;;;10.80;99.90;;;;;;5073612;28;20206;-83
2023/12/23 03:59:04;;;;;;;6.10;1.90;;;10.80;99.90;;;;;;5074241;28;20207;-89
2023/12/23 04:01:30;;;;;;;10.10;1.93;;;10.80;99.90;;;;;;5073917;28;20233;-89
2023/12/23 04:03:55;;;;;;;8.03;2.03;;;10.80;99.90;;;;;;5073195;28;20208;-86
2023/12/23 04:06:21;;;;;;;8.53;2.43;;;10.80;99.90;;;;;;5073278;28;20176;-88
2023/12/23 04:08:46;;;;;;;6.93;1.87;;;10.70;99.90;;;;;;5073673;28;20635;-83
2023/12/23 04:11:12;;;;;;;7.37;1.80;;;10.80;99.90;;;;;;5072768;28;20171;-88
2023/12/23 04:13:38;;;;;;;8.40;2.20;;;10.80;99.90;;;;;;5072574;28;20613;-89
2023/12/23 04:16:05;;;;;;;7.80;1.93;;;10.70;99.90;;;;;;5074425;28;20200;-82
2023/12/23 04:18:31;;;;;;;7.00;2.00;;;10.70;99.90;;;;;;5074364;28;20167;-81
2023/12/23 04:20:57;;;;;;;6.20;2.07;;;10.70;99.90;;;;;;5072680;28;20172;-87
2023/12/23 04:23:23;;;;;;;7.77;1.77;;;10.80;99.90;;;;;;5072451;28;20269;-80
2023/12/23 04:25:49;;;;;;;8.40;1.90;;;10.80;99.90;;;;;;5072947;28;20284;-90
2023/12/23 04:28:17;;;;;;;8.93;2.27;;;10.70;99.90;;;;;;5072579;28;20269;-90
2023/12/23 04:30:42;;;;;;;8.27;2.27;;;10.80;99.90;;;;;;5073912;28;20203;-84
2023/12/23 04:33:08;;;;;;;8.50;2.60;;;10.80;99.90;;;;;;5073686;28;20176;-89
2023/12/23 04:35:34;;;;;;;6.20;2.00;;;10.70;99.90;;;;;;5072660;28;20168;-88
2023/12/23 04:38:01;;;;;;;7.60;2.10;;;10.70;99.90;;;;;;5073062;28;20168;-89
2023/12/23 04:40:26;;;;;;;8.07;1.83;;;10.80;99.90;;;;;;5073061;28;20542;-86
2023/12/23 04:42:52;;;;;;;7.73;2.27;;;10.80;99.90;;;;;;5073273;28;20198;-89
2023/12/23 04:45:18;;;;;;;10.03;2.23;;;10.80;99.90;;;;;;5073412;28;20201;-89
2023/12/23 04:47:44;;;;;;;7.00;2.00;;;10.70;99.90;;;;;;5072702;28;20176;-84
2023/12/23 04:50:09;;;;;;;7.77;1.60;;;10.60;99.90;;;;;;5073494;28;20199;-87
2023/12/23 04:52:35;;;;;;;9.63;2.33;;;10.50;99.90;;;;;;5073039;28;20177;-89
2023/12/23 04:55:05;;;;;;;7.47;2.40;;;10.40;99.90;;;;;;5072622;28;20628;-88
2023/12/23 04:57:32;;;;;;;12.73;2.70;;;10.30;99.90;;;;;;5072764;28;20561;-89
2023/12/23 04:59:59;;;;;;;7.60;1.97;;;10.20;99.90;;;;;;5073852;28;20172;-88
2023/12/23 05:02:25;;;;;;;7.17;2.27;;;10.20;99.90;;;;;;5071967;28;20220;-88
2023/12/23 05:04:52;;;;;;;7.43;2.17;;;10.20;99.90;;;;;;5072304;28;20182;-88
2023/12/23 05:07:18;;;;;;;8.83;2.13;;;10.10;99.90;;;;;;5072080;28;20179;-84
2023/12/23 05:09:43;;;;;;;7.80;1.93;;;10.10;99.90;;;;;;5071766;28;20172;-90
2023/12/23 05:12:09;;;;;;;15.07;3.07;;;10.10;99.90;;;;;;5072721;28;20174;-89
2023/12/23 05:14:34;;;;;;;10.23;2.17;;;10.10;99.90;;;;;;5070402;28;20169;-86
2023/12/23 05:17:00;;;;;;;5.17;1.80;;;10.10;99.90;;;;;;5073307;28;20624;-89
2023/12/23 05:19:26;;;;;;;8.77;2.63;;;10.10;99.90;;;;;;5074767;28;20571;-86
2023/12/23 05:21:51;;;;;;;9.57;2.50;;;10.10;99.90;;;;;;5076355;28;20176;-89
2023/12/23 05:24:17;;;;;;;7.30;2.07;;;10.10;99.90;;;;;;5076150;28;20220;-88
2023/12/23 05:26:43;;;;;;;12.30;2.50;;;10.10;99.90;;;;;;5076205;28;20209;-87
2023/12/23 05:29:08;;;;;;;9.70;2.13;;;10.20;99.90;;;;;;5078421;28;20173;-88
2023/12/23 05:31:34;;;;;;;11.37;2.57;;;10.20;99.90;;;;;;5077134;28;20227;-85
2023/12/23 05:34:00;;;;;;;12.87;3.07;;;10.20;99.90;;;;;;5076424;28;20732;-89
2023/12/23 05:36:25;;;;;;;9.23;2.20;;;10.20;99.90;;;;;;5076484;28;20229;-86
2023/12/23 05:38:51;;;;;;;7.93;2.40;;;10.20;99.90;;;;;;5075766;28;20267;-89
2023/12/23 05:41:17;;;;;;;11.13;2.93;;;10.20;99.90;;;;;;5076241;28;20180;-87
2023/12/23 05:43:42;;;;;;;9.67;2.60;;;10.20;99.90;;;;;;5076233;28;20299;-81
2023/12/23 05:46:08;;;;;;;7.50;3.03;;;10.30;99.90;;;;;;5075417;28;20606;-85
2023/12/23 05:48:34;;;;;;;12.30;2.87;;;10.30;99.90;;;;;;5075793;28;20199;-88
2023/12/23 05:51:00;;;;;;;14.07;3.67;;;10.40;99.90;;;;;;5074958;28;20664;-88
2023/12/23 05:53:25;;;;;;;14.30;2.67;;;10.40;99.90;;;;;;5075458;28;20648;-86
2023/12/23 05:55:51;;;;;;;9.63;2.80;;;10.40;99.90;;;;;;5075362;28;20172;-89
2023/12/23 05:58:17;;;;;;;10.23;2.77;;;10.40;99.90;;;;;;5075365;28;20187;-86
2023/12/23 06:00:43;;;;;;;10.23;2.80;;;10.40;99.90;;;;;;5075981;28;20588;-83
2023/12/23 06:03:08;;;;;;;13.97;3.30;;;10.40;99.90;;;;;;5074844;28;20220;-90
2023/12/23 06:05:34;;;;;;;14.37;2.80;;;10.40;99.90;;;;;;5075909;28;20203;-89
2023/12/23 06:08:00;;;;;;;13.63;3.77;;;10.40;99.90;;;;;;5076698;28;20640;-89
2023/12/23 06:10:25;;;;;;;10.70;2.87;;;10.40;99.90;;;;;;5077014;28;20526;-87
2023/12/23 06:12:51;;;;;;;10.33;3.10;;;10.50;99.90;;;;;;5080369;28;20172;-89
2023/12/23 06:15:17;;;;;;;9.90;2.97;;;10.50;99.90;;;;;;5079062;28;20258;-90
2023/12/23 06:17:43;;;;;;;10.10;2.97;;;10.50;99.90;;;;;;5075908;28;20171;-87
2023/12/23 06:20:09;;;;;;;11.87;3.17;;;10.50;99.90;;;;;;5076073;28;20164;-84
2023/12/23 06:22:35;;;;;;;7.37;2.90;;;10.50;99.90;;;;;;5074875;28;20223;-89
2023/12/23 06:25:00;;;;;;;9.37;2.73;;;10.60;99.90;;;;;;5075035;28;20676;-89
2023/12/23 06:27:26;;;;;;;9.93;3.20;;;10.70;99.90;;;;;;5074402;28;20176;-82
2023/12/23 06:29:52;;;;;;;13.53;3.23;;;10.70;99.90;;;;;;5074336;28;20265;-87
2023/12/23 06:32:17;;;;;;;13.80;2.70;;;10.80;99.90;;;;;;5073873;28;20273;-87
2023/12/23 06:34:43;;;;;;;6.27;2.30;;;10.80;99.90;;;;;;5074422;28;20200;-88
2023/12/23 06:37:08;;;;;;;11.60;2.50;;;10.80;99.90;;;;;;5073954;28;20527;-90
2023/12/23 06:39:34;;;;;;;8.50;2.73;;;10.90;99.90;;;;;;5075169;28;20222;-83
2023/12/23 06:42:01;;;;;;;9.17;2.83;;;10.90;99.90;;;;;;5074370;28;20534;-89
2023/12/23 06:44:26;;;;;;;7.40;2.23;;;11.00;99.90;;;;;;5074906;28;20245;-86
2023/12/23 06:46:52;;;;;;;12.97;3.00;;;11.00;99.90;;;;;;5076218;28;20624;-87
2023/12/23 06:49:18;;;;;;;12.70;3.17;;;11.00;99.90;;;;;;5075100;28;20172;-88
2023/12/23 06:51:44;;;;;;;11.97;2.50;;;11.10;99.90;;;;;;5074868;28;20185;-90
2023/12/23 06:54:11;;;;;;;10.77;2.73;;;11.00;99.90;;;;;;5075731;28;20170;-89
2023/12/23 06:56:39;;;;;;;8.87;2.57;;;11.10;99.90;;;;;;5082196;28;20168;-91
2023/12/23 06:59:09;;;;;;;8.10;2.27;;;11.10;99.90;;;;;;5087021;28;20630;-90
2023/12/23 07:01:41;;;;;;;9.57;2.47;;;11.10;99.90;;;;;;5084567;28;20169;-91
2023/12/23 07:04:09;;;;;;;6.40;2.13;;;11.00;99.90;;;;;;5090645;28;20237;-87
2023/12/23 07:06:36;;;;;;;9.20;2.90;;;11.00;99.90;;;;;;5079965;28;20169;-85
2023/12/23 07:09:02;;;;;;;9.60;2.33;;;11.00;99.90;;;;;;5079653;28;20184;-86
2023/12/23 07:11:27;;;;;;;11.53;2.67;;;11.00;99.90;;;;;;5080738;28;20227;-90
2023/12/23 07:13:56;;;;;;;8.57;2.33;;;11.00;99.90;;;;;;5074242;28;20617;-91
2023/12/23 07:16:22;;;;;;;10.57;3.37;;;11.00;99.90;;;;;;5074465;28;20260;-87
2023/12/23 07:18:47;;;;;;;13.93;2.63;;;11.00;99.90;;;;;;5074240;28;20245;-86
2023/12/23 07:21:13;;;;;;;5.07;1.40;;;11.00;99.90;;;;;;5074418;28;20700;-88
2023/12/23 07:23:38;;;;;;;10.73;3.63;;;11.00;99.90;;;;;;5073731;28;20695;-88
2023/12/23 07:26:05;;;;;;;14.60;3.13;;;11.00;99.90;;;;;;5073710;28;20234;-89
2023/12/23 07:28:31;;;;;;;7.30;2.10;;;11.10;99.90;;;;;;5075187;28;20248;-88
2023/12/23 07:30:59;;;;;;;6.30;2.20;;;11.10;99.90;;;;;;5073982;28;20247;-89
2023/12/23 07:33:25;;;;;;;7.23;2.43;;;11.10;99.90;;;;;;5073815;28;20180;-91
2023/12/23 07:35:51;;;;;;;7.03;2.20;;;11.10;99.90;;;;;;5074244;28;20172;-90
2023/12/23 07:38:17;;;;;;;8.90;2.30;;;11.10;99.90;;;;;;5075006;28;20164;-88
2023/12/23 07:40:42;;;;;;;7.80;2.77;;;11.00;99.90;;;;;;5075648;28;20640;-91
2023/12/23 07:43:08;;;;;;;9.57;3.17;;;11.00;99.90;;;;;;5073098;28;20200;-88
2023/12/23 07:45:33;;;;;;;10.10;2.60;;;11.10;99.90;;;;;;5073919;28;20625;-90
2023/12/23 07:47:59;;;;;;;7.23;2.40;;;11.10;99.90;;;;;;5074509;28;20199;-90
2023/12/23 07:50:26;;;;;;;11.53;2.90;;;11.10;99.90;;;;;;5074545;28;20225;-88
2023/12/23 07:52:53;;;;;;;7.50;2.20;;;11.10;99.90;;;;;;5073929;28;20226;-91
2023/12/23 07:55:18;;;;;;;6.87;1.93;;;11.00;99.90;;;;;;5074438;28;20161;-89
2023/12/23 07:57:45;;;;;;;8.30;2.70;;;11.00;99.90;;;;;;5073526;28;20197;-88
2023/12/23 08:00:11;;;;;;;9.37;2.53;;;11.00;99.90;;;;;;5073889;28;20192;-87
2023/12/23 08:02:37;;;;;;;9.53;1.90;;;11.10;99.90;;;;;;5073468;28;20205;-89
2023/12/23 08:05:05;;;;;;;7.10;2.20;;;11.10;99.90;;;;;;5073578;28;20186;-88
2023/12/23 08:07:33;;;;;;;6.17;1.83;;;11.10;99.90;;;;;;5072610;28;20280;-89
2023/12/23 08:09:59;;;;;;;12.17;2.43;;;11.20;99.90;;;;;;5073936;28;20239;-88
2023/12/23 08:12:25;;;;;;;9.67;2.00;;;11.20;99.90;;;;;;5075182;28;20278;-89
2023/12/23 08:14:50;;;;;;;9.77;2.30;;;11.20;99.90;;;;;;5073395;28;20640;-88
2023/12/23 08:17:16;;;;;;;9.73;2.30;;;11.20;99.90;;;;;;5075136;28;20569;-90
2023/12/23 08:19:42;;;;;;;8.73;2.23;;;11.20;99.90;;;;;;5073247;28;20182;-89
2023/12/23 08:22:08;;;;;;;7.40;2.10;;;11.20;99.90;;;;;;5074450;28;20567;-86
2023/12/23 08:24:34;;;;;;;8.23;1.93;;;11.20;99.90;;;;;;5072566;28;20215;-89
2023/12/23 08:27:00;;;;;;;8.13;2.00;;;11.20;99.90;;;;;;5073312;28;20198;-88
2023/12/23 08:29:26;;;;;;;4.27;1.63;;;11.20;99.90;;;;;;5076355;28;20176;-92
2023/12/23 08:31:51;;;;;;;5.53;1.43;;;11.20;99.90;;;;;;5073059;28;20605;-87
2023/12/23 08:34:17;;;;;;;6.03;2.00;;;11.30;99.90;;;;;;5073982;28;20176;-87
2023/12/23 08:36:43;;;;;;;8.07;2.60;;;11.30;99.90;;;;;;5072910;28;20606;-86
2023/12/23 08:39:08;;;;;;;8.60;2.53;;;11.20;99.90;;;;;;5073224;28;20156;-90
2023/12/23 08:41:37;;;;;;;6.77;2.07;;;11.30;99.90;;;;;;5072881;28;20177;-90
2023/12/23 08:44:03;;;;;;;6.13;2.00;;;11.30;99.90;;;;;;5073189;28;20208;-86
2023/12/23 08:46:29;;;;;;;7.93;2.10;;;11.30;99.90;;;;;;5074148;28;20173;-84
2023/12/23 08:48:55;;;;;;;6.30;1.80;;;11.30;99.90;;;;;;5073504;28;20202;-91
2023/12/23 08:51:22;;;;;;;6.63;2.27;;;11.30;99.90;;;;;;5085708;28;20173;-89
2023/12/23 08:53:48;;;;;;;6.80;2.00;;;11.30;99.90;;;;;;5090692;28;20176;-83
2023/12/23 08:56:14;;;;;;;10.33;2.07;;;11.30;99.90;;;;;;5089219;28;20225;-85
2023/12/23 08:58:43;;;;;;;8.13;1.90;;;11.30;99.90;;;;;;5092038;28;20171;-91
2023/12/23 09:01:09;;;;;;;5.60;1.80;;;11.30;99.90;;;;;;5091412;28;20192;-85
2023/12/23 09:03:34;;;;;;;10.73;2.20;;;11.30;99.90;;;;;;5077885;28;20243;-89
2023/12/23 09:06:01;;;;;;;6.10;1.97;;;11.40;99.90;;;;;;5058915;28;20201;-88
2023/12/23 09:08:27;;;;;;;9.17;2.17;;;11.40;99.90;;;;;;5075897;28;20203;-90
2023/12/23 09:10:54;;;;;;;6.80;2.00;;;11.40;99.90;;;;;;5076673;28;20197;-90
2023/12/23 09:13:19;;;;;;;4.40;2.00;;;11.40;99.90;;;;;;5075437;28;20184;-89
2023/12/23 09:15:45;;;;;;;6.50;2.20;;;11.40;99.90;;;;;;5074489;28;20187;-91
2023/12/23 09:18:11;;;;;;;6.77;1.60;;;11.40;99.90;;;;;;5073440;28;20165;-88
2023/12/23 09:20:38;;;;;;;7.97;2.30;;;11.40;99.90;;;;;;5072836;28;20647;-90
2023/12/23 09:23:06;;;;;;;7.60;1.70;;;11.40;99.90;;;;;;5071637;28;20208;-88
2023/12/23 09:25:32;;;;;;;7.67;1.90;;;11.50;99.90;;;;;;5072510;28;20265;-92
2023/12/23 09:27:57;;;;;;;5.90;1.87;;;11.50;99.90;;;;;;5074203;28;20169;-88
2023/12/23 09:30:30;;;;;;;7.10;2.20;;;11.60;99.90;;;;;;5072561;28;20328;-85
2023/12/23 09:32:57;;;;;;;6.10;2.27;;;11.50;99.90;;;;;;5073606;28;20191;-89
2023/12/23 09:35:23;;;;;;;4.73;1.50;;;11.50;99.90;;;;;;5071790;28;20194;-86
2023/12/23 09:37:48;;;;;;;6.57;1.93;;;11.50;99.90;;;;;;5068722;28;20247;-87
2023/12/23 09:40:15;;;;;;;7.57;2.10;;;11.60;99.90;;;;;;5062510;28;20538;-88
2023/12/23 09:42:41;;;;;;;8.33;2.33;;;11.60;99.90;;;;;;5061472;28;20253;-88
2023/12/23 09:45:08;;;;;;;3.57;1.70;;;11.60;99.90;;;;;;5059978;28;20269;-87
2023/12/23 09:47:33;;;;;;;9.00;1.90;;;11.60;99.90;;;;;;5060034;28;20177;-84
2023/12/23 09:49:59;;;;;;;6.80;1.80;;;11.60;99.90;;;;;;5060086;28;20186;-87
2023/12/23 09:52:25;;;;;;;7.90;3.37;;;11.60;99.90;;;;;;5051114;28;20316;-87
2023/12/23 09:54:53;;;;;;;9.00;3.20;;;11.60;99.90;;;;;;5051234;28;20530;-88
2023/12/23 09:57:19;;;;;;;8.63;2.97;;;11.60;99.90;;;;;;5050816;28;20178;-86
2023/12/23 09:59:55;;;;;;;9.43;2.27;;;11.70;99.90;;;;;;5051183;28;20272;-88
2023/12/23 10:02:21;;;;;;;8.13;2.30;;;11.70;99.90;;;;;;5050810;28;20177;-85
2023/12/23 10:04:47;;;;;;;5.90;1.67;;;11.70;99.80;;;;;;5050230;28;20238;-88
2023/12/23 10:07:15;;;;;;;7.33;2.00;;;11.80;99.60;;;;;;5055726;28;20179;-84
2023/12/23 10:09:41;;;;;;;8.27;2.40;;;11.80;97.80;;;;;;5067881;28;20185;-83
2023/12/23 10:12:07;;;;;;;7.47;2.10;;;11.80;96.20;;;;;;5074760;28;20180;-85
2023/12/23 10:14:32;;;;;;;8.53;2.20;;;11.80;95.70;;;;;;5075835;28;20165;-89
2023/12/23 10:16:58;;;;;;;5.00;1.93;;;11.90;94.60;;;;;;5074918;28;20641;-87
2023/12/23 10:19:24;;;;;;;5.20;1.67;;;12.00;93.30;;;;;;5075173;28;20182;-89
2023/12/23 10:21:50;;;;;;;6.57;2.10;;;12.00;92.50;;;;;;5074872;28;20911;-86
2023/12/23 10:24:16;;;;;;;4.47;1.87;;;11.80;93.40;;;;;;5074436;28;20219;-87
2023/12/23 10:26:42;;;;;;;2.77;1.37;;;12.00;92.50;;;;;;5074584;28;20172;-84
2023/12/23 10:29:10;;;;;;;4.43;1.50;;;12.10;91.60;;;;;;5078550;28;20182;-84
2023/12/23 10:31:36;;;;;;;5.77;1.50;;;12.10;92.30;;;;;;5086658;28;20260;-83
2023/12/23 10:34:14;;;;;;;7.57;1.90;;;12.10;92.10;;;;;;5083275;28;20165;-84
2023/12/23 10:36:42;;;;;;;10.10;2.40;;;12.10;93.00;;;;;;5084124;28;20179;-85
2023/12/23 10:39:39;;;;;;;4.37;1.60;;;12.10;92.80;;;;;;5078387;28;20177;-87
2023/12/23 10:42:07;;;;;;;5.17;1.37;;;12.10;92.10;;;;;;5074701;28;20232;-86
2023/12/23 10:44:34;;;;;;;6.67;1.90;;;12.10;92.50;;;;;;5075741;28;20268;-92
2023/12/23 10:47:01;;;;;;;8.23;1.80;;;12.10;93.40;;;;;;5075121;28;20538;-92
2023/12/23 10:49:29;;;;;;;4.50;1.67;;;12.10;93.40;;;;;;5075625;28;20615;-89
2023/12/23 10:51:56;;;;;;;6.00;1.60;;;12.00;94.40;;;;;;5077909;28;20171;-88
2023/12/23 10:54:25;;;;;;;4.70;1.70;;;12.00;94.50;;;;;;5067576;28;20230;-91
2023/12/23 10:56:52;;;;;;;5.60;1.30;;;12.00;94.90;;;;;;5065483;28;20171;-87
2023/12/23 10:59:18;;;;;;;4.97;1.80;;;12.00;95.20;;;;;;5062776;28;20178;-83
2023/12/23 11:01:46;;;;;;;8.87;1.93;;;12.00;95.90;;;;;;5055743;28;20679;-86
2023/12/23 11:04:12;;;;;;;8.00;2.00;;;12.00;96.20;;;;;;5054580;28;20759;-88
2023/12/23 11:06:42;;;;;;;6.50;1.90;;;12.00;96.30;;;;;;5054935;28;20172;-86
2023/12/23 11:09:09;;;;;;;6.47;1.87;;;12.10;96.50;;;;;;5055433;28;20175;-87
2023/12/23 11:11:36;;;;;;;5.07;2.00;;;12.10;96.10;;;;;;5056710;28;20274;-87
2023/12/23 11:14:04;;;;;;;5.83;1.80;;;12.10;96.60;;;;;;5064354;28;20686;-87
2023/12/23 11:16:31;;;;;;;7.80;1.77;;;12.10;96.00;;;;;;5076151;28;20184;-88
2023/12/23 11:18:57;;;;;;;5.03;1.70;;;12.10;94.90;;;;;;5071203;28;20178;-89
2023/12/23 11:21:23;;;;;;;6.43;1.63;;;12.10;95.50;;;;;;5064373;28;20173;-90
2023/12/23 11:23:48;;;;;;;6.10;1.83;;;12.20;95.10;;;;;;5058373;28;20262;-89
2023/12/23 11:26:40;;;;;;;5.87;1.73;;;12.20;95.30;;;;;;5057331;28;20215;-90
2023/12/23 11:29:07;;;;;;;4.67;1.93;;;12.30;93.80;;;;;;5066269;28;20211;-88
2023/12/23 11:31:32;;;;;;;7.93;1.93;;;12.20;94.20;;;;;;5075723;28;20262;-90
2023/12/23 11:33:59;;;;;;;6.90;1.80;;;12.20;94.00;;;;;;5074978;28;20675;-84
2023/12/23 11:36:25;;;;;;;5.83;1.90;;;12.20;93.60;;;;;;5077641;28;20164;-85
2023/12/23 11:38:52;;;;;;;9.03;2.57;;;12.20;93.40;;;;;;5075239;28;20180;-91
2023/12/23 11:41:18;;;;;;;3.97;1.53;;;12.30;93.30;;;;;;5074439;28;20742;-87
2023/12/23 11:43:45;;;;;;;2.83;1.60;;;12.30;92.20;;;;;;5074204;28;20688;-89
2023/12/23 11:46:15;;;;;;;5.20;1.60;;;12.40;91.90;;;;;;5067021;28;20204;-87
2023/12/23 11:48:41;;;;;;;5.87;1.40;;;12.40;91.80;;;;;;5054969;28;20546;-88
2023/12/23 11:51:07;;;;;;;8.23;1.50;;;12.40;91.10;;;;;;5064701;28;20176;-88
2023/12/23 11:53:33;;;;;;;8.00;1.70;;;12.40;90.90;;;;;;5076390;28;20178;-89
2023/12/23 11:55:59;;;;;;;7.57;2.20;;;12.40;91.80;;;;;;5059626;28;20191;-92
2023/12/23 11:58:26;;;;;;;4.97;1.43;;;12.40;92.30;;;;;;5081597;28;20190;-87
2023/12/23 12:00:54;;;;;;;8.07;1.90;;;12.30;90.30;;;;;;5082794;28;20198;-84
2023/12/23 12:03:22;;;;;;;6.40;1.83;;;12.40;90.50;;;;;;5085249;28;20207;-86
2023/12/23 12:05:57;;;;;;;6.10;1.97;;;12.40;87.00;;;;;;5079467;28;20172;-91
2023/12/23 12:08:24;;;;;;;5.37;2.10;;;12.30;88.40;;;;;;5068289;28;20169;-92
2023/12/23 12:10:50;;;;;;;4.80;1.87;;;12.50;88.00;;;;;;5058503;28;20260;-83
2023/12/23 12:13:16;;;;;;;8.17;2.23;;;12.50;88.10;;;;;;5075330;28;20211;-85
2023/12/23 12:15:42;;;;;;;5.13;1.77;;;12.50;87.60;;;;;;5061943;28;20683;-91
2023/12/23 12:18:08;;;;;;;6.43;1.83;;;12.50;87.40;;;;;;5058177;28;20186;-88
2023/12/23 12:20:37;;;;;;;7.50;1.90;;;12.50;88.10;;;;;;5065060;28;20195;-91
2023/12/23 12:23:03;;;;;;;5.73;1.83;;;12.50;87.40;;;;;;5069367;28;20309;-90
2023/12/23 12:25:28;;;;;;;6.50;1.77;;;12.50;88.60;;;;;;5065043;28;20223;-89
2023/12/23 12:27:55;;;;;;;7.80;1.67;;;12.50;88.70;;;;;;5065537;28;20635;-89
2023/12/23 12:30:21;;;;;;;6.23;1.73;;;12.40;88.00;;;;;;5066118;28;20648;-90
2023/12/23 12:32:47;;;;;;;6.83;1.80;;;12.50;87.00;;;;;;5067606;28;20168;-89
2023/12/23 12:35:14;;;;;;;4.77;1.77;;;12.60;84.60;;;;;;5074940;28;20188;-84
2023/12/23 12:37:40;;;;;;;6.17;1.87;;;12.60;83.70;;;;;;5054096;28;20187;-85
2023/12/23 12:40:13;;;;;;;7.80;1.90;;;12.70;83.10;;;;;;5055304;28;20185;-83
2023/12/23 12:42:44;;;;;;;4.70;1.57;;;12.70;80.80;;;;;;5065753;28;20184;-92